Auburn Hills, Michigan
Current Conditions -  °F | °C
As of 5:15 PM on Saturday 25 Oct 2014 (Local Time) from KVLL Reporting Station
Clear Clear  
Wind Chill: 69°   Ceiling: Unl
Heat Index: 69°   Visibility: 10mi
Dew Point: 32°   Wind: 16mph
Humidity: 26%   Direction: 270°W
Pressure: 29.73"   Gusts: 26mph
Location:  42.67°N, 83.22°W
Report Text: KVLL 252115Z AUTO 27014G23KT 10SM CLR 20/00 A2973 RMK AO2 T02030001
Loading
Personal Weather Stations






























Interactive Weather Map
Tropical Storm Tracking
New forecast layout! Learn more

10-Day Weather Forecast

Advertisements
Track Severe Weather on mobile